Huvudsida
METAR-TAF:

METAR-TAF

Flygplatser :

Roskildes flygplats

Roskilde, Danmark

latitud: 55-35N, longitud: 012-08E, höjd: 44 m

Aktuellt väderrapport

Denna rapport gjordes för 40 minuter sedan, klockan 20:50 UTC
Vind 9 kt från syd
Temperatur 3°C
Fuktighet 93%
Tryck 1010 hPa
Sikt 10 km eller mer
lätt regn,

METAR: EKRK 232050Z AUTO 18009KT 9999 -RA OVC010/// 03/02 Q1010

Tid: 23:30 (21:30 UTC)

Väderprognos

Denna rapport gjordes för 1 timme och 27 minuter sedan, klockan 20:03 UTC
Prognos gäller från 23 kl. 21 UTC till 24 kl. 06 UTC
Vind 10 kt från sydväst
Sikt 10 km eller mer
Brutna moln på en höjd av 4000 ft
Temporärt
från 23 kl. 21 UTC till 23 kl. 24 UTC
Sikt: 4000 m
Brutna moln på en höjd av 1200 ft
Spridda moln på en höjd av 1500 ft, Cumulonimbus.
regn, duggregn
Temporärt
från 24 kl. 00 UTC till 24 kl. 06 UTC
Få moln på en höjd av 2000 ft, Cumulonimbus.

TAF: EKRK 232003Z 2321/2406 22010KT 9999 BKN040 TEMPO 2321/2324 4000 RADZ BKN012 SCT015CB TEMPO 2400/2406 FEW020CB

Aktuella väderrapporter och prognoser från 4000 flygplatser (METAR- och TAF-rapporter).

De tillgängliga stationerna syns som gula och röda prickar på kartan.

För musen över prickarna för att se namnen på stationerna.

Klicka sedan för att få väderrapporter och prognoser.

För att ändra kartan: Klicka på de gröna knapparna med ett svart kors på för att zooma in; den gröna knappen med ett streck på för att zooma ut; eller på de gröna pilarna för angränsande kartor.


METAR-TAF: